createdAt,value
2018-04-22T00:01:14.969Z,99.90
2018-04-22T00:03:42.558Z,99.90
2018-04-22T00:06:11.623Z,99.90
2018-04-22T00:08:39.175Z,99.90
2018-04-22T00:11:06.748Z,99.90
2018-04-22T00:13:34.312Z,99.90
2018-04-22T00:16:01.943Z,99.90
2018-04-22T00:18:29.520Z,99.90
2018-04-22T00:20:57.098Z,99.90
2018-04-22T00:23:24.652Z,99.90
2018-04-22T00:25:52.242Z,99.90
2018-04-22T00:28:19.789Z,99.90
2018-04-22T00:30:47.371Z,99.90
2018-04-22T00:33:15.695Z,99.90
2018-04-22T00:35:43.267Z,99.90
2018-04-22T00:38:10.836Z,99.90
2018-04-22T00:40:38.435Z,99.90
2018-04-22T00:43:05.991Z,99.90
2018-04-22T00:45:33.667Z,99.90
2018-04-22T00:48:01.244Z,99.90
2018-04-22T00:50:28.804Z,99.90
2018-04-22T00:53:00.163Z,99.90
2018-04-22T00:55:35.018Z,99.90
2018-04-22T01:01:01.286Z,99.90
2018-04-22T01:03:28.859Z,99.90
2018-04-22T01:05:57.739Z,99.90
2018-04-22T01:08:31.067Z,99.90
2018-04-22T01:11:00.664Z,99.90
2018-04-22T01:13:28.219Z,99.90
2018-04-22T01:15:55.852Z,99.90
2018-04-22T01:18:23.469Z,99.90
2018-04-22T01:20:51.009Z,99.90
2018-04-22T01:23:18.584Z,99.90
2018-04-22T01:25:46.132Z,99.90
2018-04-22T01:28:13.812Z,99.90
2018-04-22T01:30:41.348Z,99.90
2018-04-22T01:33:09.712Z,99.90
2018-04-22T01:35:37.268Z,99.90
2018-04-22T01:38:05.614Z,99.90
2018-04-22T01:40:33.186Z,99.90
2018-04-22T01:43:00.751Z,99.90
2018-04-22T01:45:28.303Z,99.90
2018-04-22T01:47:55.896Z,99.90
2018-04-22T01:50:24.236Z,99.90
2018-04-22T01:52:51.801Z,99.90
2018-04-22T01:55:19.535Z,99.90
2018-04-22T01:57:47.104Z,99.90
2018-04-22T02:00:14.667Z,99.90
2018-04-22T02:02:42.435Z,99.90
2018-04-22T02:05:09.994Z,99.90
2018-04-22T02:07:37.558Z,99.90
2018-04-22T02:10:05.139Z,99.90
2018-04-22T02:12:32.695Z,99.90
2018-04-22T02:15:00.287Z,99.90
2018-04-22T02:17:28.643Z,99.90
2018-04-22T02:19:56.251Z,99.90
2018-04-22T02:22:23.817Z,99.90
2018-04-22T02:24:51.566Z,99.90
2018-04-22T02:27:19.116Z,99.90
2018-04-22T02:29:46.754Z,99.90
2018-04-22T02:32:14.348Z,99.90
2018-04-22T02:34:41.988Z,99.90
2018-04-22T02:37:10.374Z,99.90
2018-04-22T02:39:38.717Z,99.90
2018-04-22T02:42:06.272Z,99.90
2018-04-22T02:44:33.858Z,99.90
2018-04-22T02:47:01.399Z,99.90
2018-04-22T02:49:28.965Z,99.90
2018-04-22T02:51:56.535Z,99.90
2018-04-22T02:54:24.096Z,99.90
2018-04-22T02:56:52.463Z,99.90
2018-04-22T02:59:20.015Z,99.90
2018-04-22T03:01:47.582Z,99.90
2018-04-22T03:04:15.147Z,99.90
2018-04-22T03:06:42.706Z,99.90
2018-04-22T03:09:10.274Z,99.90
2018-04-22T03:11:37.985Z,99.90
2018-04-22T03:14:05.529Z,99.90
2018-04-22T03:16:33.140Z,99.90
2018-04-22T03:19:00.828Z,99.90
2018-04-22T03:21:29.143Z,99.90
2018-04-22T03:23:56.707Z,99.90
2018-04-22T03:26:24.272Z,99.90
2018-04-22T03:28:51.841Z,99.90
2018-04-22T03:31:19.399Z,99.90
2018-04-22T03:33:46.967Z,99.90
2018-04-22T03:36:14.543Z,99.90
2018-04-22T03:38:42.093Z,99.90
2018-04-22T03:41:09.660Z,99.90
2018-04-22T03:43:37.435Z,99.90
2018-04-22T03:46:04.996Z,99.90
2018-04-22T03:48:32.591Z,99.90
2018-04-22T03:51:00.144Z,99.90
2018-04-22T03:53:27.719Z,99.90
2018-04-22T03:55:55.276Z,99.90
2018-04-22T03:58:22.828Z,99.90
2018-04-22T04:00:50.396Z,99.90
2018-04-22T04:03:17.979Z,99.90
2018-04-22T04:05:45.539Z,99.90
2018-04-22T04:08:13.120Z,99.90
2018-04-22T04:10:40.711Z,99.90
2018-04-22T04:13:09.027Z,99.90
2018-04-22T04:15:36.613Z,99.90
2018-04-22T04:21:29.787Z,99.90
2018-04-22T04:27:32.207Z,99.90
2018-04-22T04:29:59.820Z,99.90
2018-04-22T04:32:27.380Z,99.90
2018-04-22T04:34:55.023Z,99.90
2018-04-22T04:37:22.586Z,99.90
2018-04-22T04:39:50.944Z,99.90
2018-04-22T04:42:18.529Z,99.90
2018-04-22T04:44:46.839Z,99.90
2018-04-22T04:47:14.415Z,99.90
2018-04-22T04:49:41.972Z,99.90
2018-04-22T04:52:09.543Z,99.90
2018-04-22T04:54:37.108Z,99.90
2018-04-22T04:57:04.708Z,99.90
2018-04-22T04:59:32.258Z,99.90
2018-04-22T05:01:59.827Z,99.90
2018-04-22T05:04:27.383Z,99.90
2018-04-22T05:06:54.951Z,99.90
2018-04-22T05:09:22.522Z,99.90
2018-04-22T05:11:50.158Z,99.90
2018-04-22T05:14:18.467Z,99.90
2018-04-22T05:16:46.048Z,99.90
2018-04-22T05:19:13.629Z,99.90
2018-04-22T05:21:41.198Z,99.90
2018-04-22T05:24:08.816Z,99.90
2018-04-22T05:26:36.396Z,99.90
2018-04-22T05:29:03.983Z,99.90
2018-04-22T05:31:32.320Z,99.90
2018-04-22T05:33:59.977Z,99.90
2018-04-22T05:36:27.993Z,99.90
2018-04-22T05:38:56.721Z,99.90
2018-04-22T05:41:24.616Z,99.90
2018-04-22T05:43:52.315Z,99.90
2018-04-22T05:46:20.325Z,99.90
2018-04-22T05:48:48.262Z,99.90
2018-04-22T05:51:17.083Z,99.90
2018-04-22T05:53:44.877Z,99.90
2018-04-22T05:56:12.679Z,99.90
2018-04-22T05:58:41.081Z,99.90
2018-04-22T06:01:08.953Z,99.90
2018-04-22T06:03:36.941Z,99.90
2018-04-22T06:06:04.789Z,99.90
2018-04-22T06:08:32.668Z,99.90
2018-04-22T06:11:00.736Z,99.90
2018-04-22T06:13:28.365Z,99.90
2018-04-22T06:15:57.288Z,99.90
2018-04-22T06:18:24.971Z,99.90
2018-04-22T06:20:52.550Z,99.90
2018-04-22T06:23:20.587Z,99.90
2018-04-22T06:25:48.654Z,99.90
2018-04-22T06:28:16.417Z,99.90
2018-04-22T06:30:44.387Z,99.90
2018-04-22T06:33:12.164Z,99.90
2018-04-22T06:35:40.027Z,99.90
2018-04-22T06:38:08.115Z,99.90
2018-04-22T06:40:36.266Z,99.90
2018-04-22T06:43:04.233Z,99.90
2018-04-22T06:45:31.797Z,99.60
2018-04-22T06:47:59.408Z,99.20
2018-04-22T06:50:26.994Z,99.10
2018-04-22T06:52:55.400Z,98.30
2018-04-22T06:55:22.969Z,98.30
2018-04-22T06:57:50.551Z,98.20
2018-04-22T07:00:18.123Z,98.10
2018-04-22T07:02:46.450Z,97.20
2018-04-22T07:05:14.024Z,97.20
2018-04-22T07:07:41.585Z,97.20
2018-04-22T07:10:09.144Z,96.90
2018-04-22T07:12:36.796Z,97.10
2018-04-22T07:15:04.355Z,96.90
2018-04-22T07:17:31.964Z,97.80
2018-04-22T07:20:00.288Z,96.70
2018-04-22T07:22:27.865Z,96.70
2018-04-22T07:24:55.420Z,96.20
2018-04-22T07:27:23.068Z,96.10
2018-04-22T07:29:50.659Z,96.50
2018-04-22T07:32:18.248Z,96.30
2018-04-22T07:34:45.809Z,95.40
2018-04-22T07:37:13.673Z,96.40
2018-04-22T07:39:41.230Z,95.00
2018-04-22T07:42:09.607Z,94.60
2018-04-22T07:44:38.803Z,94.20
2018-04-22T07:47:06.395Z,94.20
2018-04-22T07:49:34.719Z,94.50
2018-04-22T07:52:02.275Z,94.40
2018-04-22T07:54:29.834Z,94.50
2018-04-22T07:56:57.420Z,93.40
2018-04-22T07:59:25.000Z,93.60
2018-04-22T08:01:52.572Z,93.50
2018-04-22T08:04:20.904Z,92.80
2018-04-22T08:06:48.490Z,92.80
2018-04-22T08:09:16.202Z,93.50
2018-04-22T08:11:43.812Z,93.60
2018-04-22T08:14:11.325Z,93.30
2018-04-22T08:16:38.899Z,93.00
2018-04-22T08:19:06.456Z,92.60
2018-04-22T08:21:34.005Z,92.70
2018-04-22T08:24:01.568Z,92.20
2018-04-22T08:26:29.109Z,92.00
2018-04-22T08:28:56.660Z,91.50
2018-04-22T08:31:24.185Z,90.60
2018-04-22T08:33:51.754Z,91.20
2018-04-22T08:36:19.272Z,90.00
2018-04-22T08:38:46.826Z,90.60
2018-04-22T08:41:14.369Z,91.10
2018-04-22T08:43:41.912Z,90.30
2018-04-22T08:46:10.202Z,88.70
2018-04-22T08:48:37.746Z,88.60
2018-04-22T08:51:06.199Z,87.70
2018-04-22T08:53:33.739Z,87.60
2018-04-22T08:56:01.271Z,88.20
2018-04-22T08:58:28.949Z,87.90
2018-04-22T09:00:56.493Z,88.10
2018-04-22T09:03:24.033Z,87.40
2018-04-22T09:05:52.366Z,88.10
2018-04-22T09:08:19.900Z,88.00
2018-04-22T09:10:47.459Z,85.60
2018-04-22T09:13:15.009Z,86.50
2018-04-22T09:15:42.569Z,86.50
2018-04-22T09:18:10.102Z,86.80
2018-04-22T09:20:38.411Z,86.00
2018-04-22T09:23:05.950Z,85.90
2018-04-22T09:25:33.490Z,85.10
2018-04-22T09:28:01.810Z,83.50
2018-04-22T09:30:29.540Z,83.40
2018-04-22T09:32:58.011Z,83.30
2018-04-22T09:35:26.323Z,83.90
2018-04-22T09:37:53.871Z,83.90
2018-04-22T09:40:21.393Z,83.30
2018-04-22T09:42:48.931Z,82.00
2018-04-22T09:45:16.473Z,84.50
2018-04-22T09:47:44.044Z,83.70
2018-04-22T09:50:11.608Z,82.10
2018-04-22T09:52:39.184Z,81.50
2018-04-22T09:55:06.747Z,83.00
2018-04-22T09:57:34.335Z,82.30
2018-04-22T10:00:01.992Z,79.70
2018-04-22T10:02:33.331Z,77.60
2018-04-22T10:05:06.553Z,79.30
2018-04-22T10:07:34.153Z,78.10
2018-04-22T10:10:01.791Z,77.20
2018-04-22T10:12:29.364Z,76.00
2018-04-22T10:14:56.963Z,76.20
2018-04-22T10:17:24.903Z,77.90
2018-04-22T10:19:52.504Z,76.30
2018-04-22T10:22:20.073Z,76.30
2018-04-22T10:24:48.427Z,74.20
2018-04-22T10:27:16.000Z,74.20
2018-04-22T10:29:43.587Z,72.00
2018-04-22T10:32:11.271Z,73.50
2018-04-22T10:34:38.840Z,75.50
2018-04-22T10:37:06.408Z,72.90
2018-04-22T10:39:34.631Z,69.10
2018-04-22T10:42:02.979Z,66.30
2018-04-22T10:44:30.554Z,66.30
2018-04-22T10:46:59.618Z,68.00
2018-04-22T10:49:27.222Z,67.90
2018-04-22T10:51:55.572Z,61.80
2018-04-22T10:54:23.156Z,61.80
2018-04-22T10:56:50.761Z,62.80
2018-04-22T10:59:18.323Z,65.50
2018-04-22T11:01:45.901Z,65.20
2018-04-22T11:04:13.569Z,61.70
2018-04-22T11:06:41.132Z,59.40
2018-04-22T11:09:08.767Z,64.30
2018-04-22T11:11:36.595Z,61.80
2018-04-22T11:14:04.928Z,65.70
2018-04-22T11:16:32.515Z,65.70
2018-04-22T11:19:00.085Z,63.20
2018-04-22T11:21:27.653Z,63.00
2018-04-22T11:23:55.975Z,63.30
2018-04-22T11:26:23.527Z,63.30
2018-04-22T11:28:51.091Z,62.80
2018-04-22T11:31:18.696Z,61.50
2018-04-22T11:33:46.257Z,62.50
2018-04-22T11:36:13.860Z,63.90
2018-04-22T11:38:41.421Z,64.10
2018-04-22T11:41:09.099Z,64.90
2018-04-22T11:43:36.668Z,65.90
2018-04-22T11:46:04.243Z,64.30
2018-04-22T11:48:31.792Z,63.70
2018-04-22T11:50:59.348Z,62.00
2018-04-22T11:53:26.925Z,64.20
2018-04-22T11:55:54.599Z,62.60
2018-04-22T11:58:22.190Z,62.40
2018-04-22T12:00:49.760Z,62.20
2018-04-22T12:03:17.313Z,63.00
2018-04-22T12:05:44.910Z,60.50
2018-04-22T12:08:12.483Z,61.50
2018-04-22T12:10:40.243Z,62.60
2018-04-22T12:13:07.813Z,63.60
2018-04-22T12:15:35.547Z,61.60
2018-04-22T12:18:03.128Z,60.90
2018-04-22T12:20:30.866Z,60.80
2018-04-22T12:22:59.023Z,60.70
2018-04-22T12:25:27.407Z,58.70
2018-04-22T12:27:55.755Z,60.30
2018-04-22T12:30:23.304Z,60.30
2018-04-22T12:32:50.900Z,58.70
2018-04-22T12:35:19.344Z,59.10
2018-04-22T12:37:47.132Z,59.10
2018-04-22T12:40:14.721Z,60.00
2018-04-22T12:42:42.299Z,59.80
2018-04-22T12:45:09.868Z,59.20
2018-04-22T12:47:37.449Z,58.80
2018-04-22T12:50:05.070Z,59.20
2018-04-22T12:52:32.646Z,59.40
2018-04-22T12:55:07.816Z,60.90
2018-04-22T12:57:35.463Z,61.70
2018-04-22T13:00:03.014Z,62.50
2018-04-22T13:02:30.571Z,65.00
2018-04-22T13:04:58.147Z,65.10
2018-04-22T13:07:25.768Z,64.50
2018-04-22T13:09:53.345Z,64.60
2018-04-22T13:12:20.906Z,66.70
2018-04-22T13:14:48.524Z,66.20
2018-04-22T13:17:16.863Z,68.80
2018-04-22T13:19:44.449Z,68.90
2018-04-22T13:22:12.043Z,74.10
2018-04-22T13:24:39.590Z,79.80
2018-04-22T13:27:07.194Z,96.40
2018-04-22T13:29:34.763Z,99.90
2018-04-22T13:32:02.309Z,99.90
2018-04-22T13:34:29.880Z,99.90
2018-04-22T13:36:57.466Z,99.90
2018-04-22T13:39:25.186Z,99.90
2018-04-22T13:41:52.765Z,99.90
2018-04-22T13:44:20.598Z,99.90
2018-04-22T13:46:48.183Z,99.90
2018-04-22T13:49:15.765Z,99.90
2018-04-22T13:51:43.339Z,99.90
2018-04-22T13:54:10.958Z,99.90
2018-04-22T13:56:38.537Z,99.90
2018-04-22T13:59:06.149Z,99.90
2018-04-22T14:01:33.828Z,99.90
2018-04-22T14:04:01.412Z,99.90
2018-04-22T14:06:29.000Z,99.90
2018-04-22T14:08:58.102Z,99.90
2018-04-22T14:11:25.705Z,99.90
2018-04-22T14:13:53.336Z,99.90
2018-04-22T14:16:21.668Z,99.90
2018-04-22T14:18:49.236Z,99.90
2018-04-22T14:21:16.845Z,99.90
2018-04-22T14:23:45.228Z,99.90
2018-04-22T14:26:12.825Z,99.90
2018-04-22T14:28:40.404Z,99.90
2018-04-22T14:31:07.989Z,99.90
2018-04-22T14:33:36.349Z,99.90
2018-04-22T14:36:04.017Z,99.90
2018-04-22T14:38:31.568Z,99.90
2018-04-22T14:40:59.168Z,99.90
2018-04-22T14:43:26.756Z,99.90
2018-04-22T14:46:17.965Z,99.90
2018-04-22T14:48:57.481Z,99.90
2018-04-22T14:51:25.140Z,99.90
2018-04-22T14:53:53.477Z,99.90
2018-04-22T14:56:21.088Z,99.90
2018-04-22T14:58:50.410Z,99.90
2018-04-22T15:01:18.029Z,99.90
2018-04-22T15:03:45.620Z,99.90
2018-04-22T15:06:13.199Z,99.90
2018-04-22T15:08:40.788Z,99.90
2018-04-22T15:11:08.403Z,99.90
2018-04-22T15:13:35.996Z,99.90
2018-04-22T15:16:03.580Z,99.90
2018-04-22T15:18:31.168Z,99.90
2018-04-22T15:20:59.529Z,99.90
2018-04-22T15:23:27.112Z,99.90
2018-04-22T15:25:55.461Z,99.90
2018-04-22T15:28:23.280Z,99.90
2018-04-22T15:30:50.916Z,99.90
2018-04-22T15:33:19.280Z,99.90
2018-04-22T15:35:46.842Z,99.90
2018-04-22T15:38:15.176Z,99.90
2018-04-22T15:40:42.732Z,99.90
2018-04-22T15:43:10.300Z,99.90
2018-04-22T15:45:37.878Z,99.90
2018-04-22T15:48:05.452Z,99.90
2018-04-22T15:50:33.023Z,99.90
2018-04-22T15:53:00.595Z,99.90
2018-04-22T15:55:28.948Z,99.90
2018-04-22T15:57:56.522Z,99.90
2018-04-22T16:00:25.460Z,99.90
2018-04-22T16:02:53.029Z,99.90
2018-04-22T16:05:20.607Z,99.90
2018-04-22T16:07:48.172Z,99.90
2018-04-22T16:10:16.555Z,99.90
2018-04-22T16:12:44.136Z,99.90
2018-04-22T16:15:12.489Z,99.90
2018-04-22T16:17:40.059Z,99.90
2018-04-22T16:20:07.721Z,99.90
2018-04-22T16:22:35.340Z,99.90
2018-04-22T16:25:02.917Z,99.90
2018-04-22T16:27:30.472Z,99.90
2018-04-22T16:29:58.064Z,99.90
2018-04-22T16:32:25.647Z,99.90
2018-04-22T16:34:54.032Z,99.90
2018-04-22T16:37:22.357Z,99.90
2018-04-22T16:39:49.931Z,99.90
2018-04-22T16:42:17.502Z,99.90
2018-04-22T16:44:45.048Z,99.90
2018-04-22T16:47:12.633Z,99.90
2018-04-22T16:49:40.951Z,99.90
2018-04-22T16:52:08.520Z,99.90
2018-04-22T16:54:36.109Z,99.90
2018-04-22T16:57:03.676Z,99.90
2018-04-22T16:59:31.273Z,99.90
2018-04-22T17:01:58.858Z,99.90
2018-04-22T17:04:26.415Z,99.90
2018-04-22T17:06:53.984Z,99.90
2018-04-22T17:09:21.645Z,99.90
2018-04-22T17:11:49.200Z,99.90
2018-04-22T17:14:16.787Z,99.90
2018-04-22T17:16:44.351Z,99.90
2018-04-22T17:19:11.948Z,99.90
2018-04-22T17:21:40.347Z,99.90
2018-04-22T17:24:07.997Z,99.90
2018-04-22T17:26:35.520Z,99.90
2018-04-22T17:29:03.236Z,99.90
2018-04-22T17:31:30.811Z,99.90
2018-04-22T17:33:58.399Z,99.90
2018-04-22T17:36:26.004Z,99.90
2018-04-22T17:38:53.636Z,99.90
2018-04-22T17:41:22.175Z,99.90
2018-04-22T17:43:49.744Z,99.90
2018-04-22T17:46:17.314Z,99.90
2018-04-22T17:48:44.925Z,99.90
2018-04-22T17:51:12.527Z,99.90
2018-04-22T17:53:40.082Z,99.90
2018-04-22T17:56:07.669Z,99.90
2018-04-22T17:58:35.264Z,99.90
2018-04-22T18:01:02.865Z,99.90
2018-04-22T18:03:30.451Z,99.90
2018-04-22T18:05:58.021Z,99.90
2018-04-22T18:08:25.575Z,99.90
2018-04-22T18:10:53.172Z,99.90
2018-04-22T18:13:21.528Z,99.90
2018-04-22T18:15:49.866Z,99.90
2018-04-22T18:18:17.566Z,99.90
2018-04-22T18:20:45.134Z,99.90
2018-04-22T18:23:13.573Z,99.90
2018-04-22T18:25:41.132Z,99.90
2018-04-22T18:28:08.732Z,99.90
2018-04-22T18:30:36.284Z,99.90
2018-04-22T18:33:04.825Z,99.90
2018-04-22T18:35:32.376Z,99.90
2018-04-22T18:37:59.998Z,99.90
2018-04-22T18:40:28.419Z,99.90
2018-04-22T18:42:56.032Z,99.90
2018-04-22T18:45:23.603Z,99.90
2018-04-22T18:47:51.932Z,99.90
2018-04-22T18:50:19.513Z,99.90
2018-04-22T18:52:47.087Z,99.90
2018-04-22T18:55:15.585Z,99.90
2018-04-22T18:57:43.935Z,99.90
2018-04-22T19:00:11.533Z,99.90
2018-04-22T19:02:39.892Z,99.90
2018-04-22T19:05:07.442Z,99.90
2018-04-22T19:07:36.575Z,99.90
2018-04-22T19:10:04.964Z,99.90
2018-04-22T19:12:32.543Z,99.90
2018-04-22T19:15:00.110Z,99.90
2018-04-22T19:17:27.701Z,99.90
2018-04-22T19:19:56.055Z,99.90
2018-04-22T19:22:23.615Z,99.90
2018-04-22T19:24:51.213Z,99.90
2018-04-22T19:27:18.803Z,99.90
2018-04-22T19:29:46.674Z,99.90
2018-04-22T19:32:14.279Z,99.90
2018-04-22T19:34:41.906Z,99.90
2018-04-22T19:37:10.037Z,99.90
2018-04-22T19:39:38.411Z,99.90
2018-04-22T19:42:06.771Z,99.90
2018-04-22T19:44:34.326Z,99.90
2018-04-22T19:47:01.911Z,99.90
2018-04-22T19:49:29.545Z,99.90
2018-04-22T19:51:57.124Z,99.90
2018-04-22T19:54:24.698Z,99.90
2018-04-22T19:56:53.068Z,99.90
2018-04-22T19:59:21.417Z,99.90
2018-04-22T20:01:48.998Z,99.90
2018-04-22T20:04:16.622Z,99.90
2018-04-22T20:06:44.261Z,99.90
2018-04-22T20:09:11.825Z,99.90
2018-04-22T20:11:39.399Z,99.90
2018-04-22T20:14:06.987Z,99.90
2018-04-22T20:16:34.682Z,99.90
2018-04-22T20:19:03.026Z,99.90
2018-04-22T20:21:30.628Z,99.90
2018-04-22T20:23:58.972Z,99.90
2018-04-22T20:26:26.539Z,99.90
2018-04-22T20:28:54.276Z,99.90
2018-04-22T20:31:21.842Z,99.90
2018-04-22T20:33:49.426Z,99.90
2018-04-22T20:36:17.020Z,99.90
2018-04-22T20:38:44.640Z,99.90
2018-04-22T20:41:12.221Z,99.90
2018-04-22T20:43:39.884Z,99.90
2018-04-22T20:46:07.448Z,99.90
2018-04-22T20:48:35.801Z,99.90
2018-04-22T20:51:03.372Z,99.90
2018-04-22T20:53:30.960Z,99.90
2018-04-22T20:55:58.539Z,99.90
2018-04-22T20:58:26.130Z,99.90
2018-04-22T21:00:53.709Z,99.90
2018-04-22T21:03:21.328Z,99.90
2018-04-22T21:05:48.932Z,99.90
2018-04-22T21:08:16.535Z,99.90
2018-04-22T21:10:44.096Z,99.90
2018-04-22T21:13:11.693Z,99.90
2018-04-22T21:15:39.955Z,99.90
2018-04-22T21:18:07.684Z,99.90
2018-04-22T21:20:36.197Z,99.90
2018-04-22T21:23:03.809Z,99.90
2018-04-22T21:25:32.176Z,99.90
2018-04-22T21:27:59.775Z,99.90
2018-04-22T21:30:27.353Z,99.90
2018-04-22T21:32:55.460Z,99.90
2018-04-22T21:35:23.035Z,99.90
2018-04-22T21:37:50.603Z,99.90
2018-04-22T21:40:18.954Z,99.90
2018-04-22T21:42:46.532Z,99.90
2018-04-22T21:45:14.116Z,99.90
2018-04-22T21:47:41.713Z,99.90
2018-04-22T21:50:09.348Z,99.90
2018-04-22T21:52:36.951Z,99.90
2018-04-22T21:55:04.539Z,99.90
2018-04-22T21:57:32.157Z,99.90
2018-04-22T21:59:59.731Z,99.90
2018-04-22T22:02:27.306Z,99.90
2018-04-22T22:04:54.853Z,99.90
2018-04-22T22:07:22.433Z,99.90
2018-04-22T22:09:50.064Z,99.90
2018-04-22T22:12:17.687Z,99.90
2018-04-22T22:14:46.023Z,99.90
2018-04-22T22:17:14.412Z,99.90
2018-04-22T22:19:41.978Z,99.90
2018-04-22T22:22:09.550Z,99.90
2018-04-22T22:24:37.127Z,99.90
2018-04-22T22:27:04.740Z,99.90
2018-04-22T22:29:32.292Z,99.90
2018-04-22T22:31:59.888Z,99.90
2018-04-22T22:34:28.326Z,99.90
2018-04-22T22:36:56.020Z,99.90
2018-04-22T22:39:23.588Z,99.90
2018-04-22T22:41:51.160Z,99.90
2018-04-22T22:44:19.519Z,99.90
2018-04-22T22:46:47.079Z,99.90
2018-04-22T22:49:14.667Z,99.90
2018-04-22T22:51:42.257Z,99.90
2018-04-22T22:54:09.887Z,99.90
2018-04-22T22:56:38.241Z,99.90
2018-04-22T22:59:05.828Z,99.90
2018-04-22T23:01:34.164Z,99.90
2018-04-22T23:04:01.838Z,99.90
2018-04-22T23:06:29.394Z,99.90
2018-04-22T23:08:56.996Z,99.90
2018-04-22T23:11:25.382Z,99.90
2018-04-22T23:13:53.061Z,99.90
2018-04-22T23:16:20.628Z,99.90
2018-04-22T23:18:48.220Z,99.90
2018-04-22T23:21:15.794Z,99.90
2018-04-22T23:23:44.130Z,99.90
2018-04-22T23:26:11.702Z,99.90
2018-04-22T23:28:39.312Z,99.90
2018-04-22T23:31:07.733Z,99.90
2018-04-22T23:33:35.300Z,99.90
2018-04-22T23:36:02.883Z,99.90
2018-04-22T23:38:30.440Z,99.90
2018-04-22T23:40:58.003Z,99.90
2018-04-22T23:43:25.613Z,99.90
2018-04-22T23:45:53.248Z,99.90
2018-04-22T23:48:21.617Z,99.90
2018-04-22T23:50:49.191Z,99.90
2018-04-22T23:53:17.509Z,99.90
2018-04-22T23:55:45.089Z,99.90
2018-04-22T23:58:12.645Z,99.90
